Don's Testing Zone


Current Conditions
weather data
source:

National Weather Service
Partly Cloudy Little Rock, AR
Partly Cloudy, 82°F
Thursday, July 19, 2018 9:37 AM CDT
Temperature: 82°F/28°C
Humidity: 89%
Barometer: 29.91in/1013.3mb Barometer Steady
Wind: Variable at 3mph/6kmh
View other cities:
Searcy | Little Rock | Hot Springs | Russellville | More...
Astronomical Conditions (Clear Sky Clock)
Searcy Clear Sky Clock
Find more weather in Little Rock, AR
    

Radar Images

NWS
    Wx Underground

KARK
   

Solar-Terrestrial Data

NWS METAR weather data

ADDS - METARS form results





Aviation Digital Data Service (ADDS) Output produced by METARs form (1452 UTC 19 July 2018) found at http://www.aviationweather.gov/adds/metars/ 

KLIT 191437Z VRB03KT 7SM SCT009 28/26 A2991 RMK AO2 T02830256

KLIT 191353Z VRB03KT 6SM BR OVC007 26/25 A2993 RMK AO2 SLP133 BINOVC T02610250

KLIT 191319Z 20004KT 6SM BR OVC007 26/25 A2993 RMK AO2 T02560250

KLIT 191253Z 16003KT 5SM BR BKN005 26/25 A2994 RMK AO2 SLP136 T02560250

KLIT 191246Z 15003KT 5SM BR BKN005 25/25 A2993 RMK AO2 T02500250

KLIT 191231Z 14003KT 4SM BR BKN004 25/25 A2993 RMK AO2 T02500250

KLIT 191153Z 00000KT 4SM BR SCT004 SCT250 25/25 A2993 RMK AO2 SLP133 SCT V BKN70009 T02500250 10250 20239 53005

KLIT 191110Z 10003KT 4SM BR SCT004 BKN250 24/24 A2992 RMK AO2 SCT V BKNT02440244

KLIT 191059Z 10004KT 5SM BR BKN004 24/24 A2991 RMK AO2 T02440244

KLIT 191053Z 10003KT 4SM BR BKN005 24/24 A2991 RMK AO2 SLP128 T02440244

KLIT 191027Z 08004KT 7SM BKN005 24/24 A2991 RMK AO2 T02440244

KLIT 190953Z 08004KT 7SM FEW005 BKN040 BKN110 24/24 A2991 RMK AO2 SLP127T02390239

KLIT 190853Z 04004KT 7SM FEW007 BKN046 BKN110 24/24 A2991 RMK AO2 SLP128T02440244 55008

KLIT 190810Z 09004KT 10SM FEW007 SCT012 BKN048 25/25 A2991 RMK AO2 T02500250

KLIT 190753Z 09003KT 10SM FEW011 SCT030 BKN120 25/25 A2991 RMK AO2 SLP128T02500250

KLIT 190653Z 08004KT 10SM FEW030 SCT120 24/24 A2992 RMK AO2 SLP130 T02440244

KLIT 190553Z 06005KT 10SM SCT030 BKN120 25/25 A2994 RMK AO2 SLP137 T0250025010272 20250 403000228 51006

KLIT 190453Z 11004KT 10SM BKN030 26/26 A2993 RMK AO2 SLP134 T02610256

KLIT 190353Z COR 11003KT 10SM SCT030 BKN036 26/26 A2993 RMK AO2 SLP134 T02610256

KLIT 190253Z COR 00000KT 10SM SCT032 SCT120 BKN200 26/25 A2992 RMK AO2 SLP130T02560250 53001

KLIT 190153Z 14003KT 10SM FEW120 SCT200 26/24 A2990 RMK AO2 SLP125 T02560244

KLIT 190053Z 07006KT 10SM FEW120 SCT150 27/24 A2991 RMK AO2 SLP127 T02670244

KLIT 182353Z 08008KT 10SM FEW020 BKN120 BKN150 27/25 A2992 RMK AO2 SLP129T02720250 10300 20267 58007

KLIT 182253Z 06006KT 10SM SCT110 BKN130 OVC150 28/25 A2993 RMK AO2 SLP134 BINOVCNW T02780250

KLIT 182153Z 00000KT 10SM SCT110 OVC150 29/23 A2993 RMK AO2 SLP133 T02940228

KLIT 182053Z 28006KT 10SM FEW019 BKN130 OVC150 29/22 A2994 RMK AO2 SLP136T02940222 58010

KLIT 181953Z 30004KT 10SM FEW025 OVC130 28/24 A2994 RMK AO2 SLP138 T02830244

KLIT 181853Z 19005KT 10SM FEW025 OVC120 27/24 A2996 RMK AO2 SLP146 T02720239

KLIT 181753Z 14004KT 10SM FEW020 OVC120 27/24 A2996 RMK AO2 SLP146 60009T02670239 10272 20239 58022

KLIT 181653Z 11006KT 10SM FEW020 OVC100 25/24 A2999 RMK AO2 RAE50 SLP156 P0004T02500244

KLIT 181553Z COR 07004KT 7SM -RA FEW024 SCT055 OVC100 24/24 A3002 RMK AO2 SLP165TSB06E46 TS DSIPT P0004 T02440239

KLIT 181546Z COR 03003KT 7SM -RA FEW024 SCT055 OVC100 24/24 A3002 RMK AO2TSB06E49 TS DSIPT P0003 T02440239

KLIT 181520Z 33011KT 4SM -TSRA SCT024 OVC055CB 26/24 A3004 RMK AO2 LTG DSNT NAND NW RAB19 TSB06 OCNL LTGICCG W-N TS W-N MOV SE P0000 T02560239

KLIT 181506Z 32017G21KT 10SM TS BKN024 BKN055CB OVC100 26/24 A3004 RMK AO2 LTGDSNT N AND NW TSB06 OCNL LTGICCG W-N TS W-N MOV SE T02610239

KLIT 181453Z 33010KT 10SM SCT030 BKN050 OVC100 27/24 A3003 RMK AO2 LTG DSNT NAND NW PRESRR SLP168 OCNL LTGCG DSNT NW CB DSNT NW-N MOV SE 60001 T0267023953011